sensor_id;sensor_type;location;lat;lon;timestamp;P1;durP1;ratioP1;P2;durP2;ratioP2
55218;SDS011;41088;44.012;20.902;2022-07-29T00:00:15;14.27;;;7.20;;
55218;SDS011;41088;44.012;20.902;2022-07-29T00:02:44;10.45;;;7.05;;
55218;SDS011;41088;44.012;20.902;2022-07-29T00:05:11;11.68;;;7.40;;
55218;SDS011;41088;44.012;20.902;2022-07-29T00:07:39;18.15;;;7.70;;
55218;SDS011;41088;44.012;20.902;2022-07-29T00:10:07;12.95;;;7.68;;
55218;SDS011;41088;44.012;20.902;2022-07-29T00:12:37;12.57;;;7.55;;
55218;SDS011;41088;44.012;20.902;2022-07-29T00:15:09;10.95;;;7.60;;
55218;SDS011;41088;44.012;20.902;2022-07-29T00:17:35;11.65;;;7.82;;
55218;SDS011;41088;44.012;20.902;2022-07-29T00:20:02;10.82;;;7.15;;
55218;SDS011;41088;44.012;20.902;2022-07-29T00:22:28;14.23;;;7.55;;
55218;SDS011;41088;44.012;20.902;2022-07-29T00:24:56;10.63;;;7.65;;
55218;SDS011;41088;44.012;20.902;2022-07-29T00:27:22;13.00;;;7.55;;
55218;SDS011;41088;44.012;20.902;2022-07-29T00:29:49;13.95;;;7.68;;
55218;SDS011;41088;44.012;20.902;2022-07-29T00:32:15;16.50;;;7.97;;
55218;SDS011;41088;44.012;20.902;2022-07-29T00:34:42;12.20;;;8.40;;
55218;SDS011;41088;44.012;20.902;2022-07-29T00:37:27;11.90;;;7.88;;
55218;SDS011;41088;44.012;20.902;2022-07-29T00:39:53;13.57;;;7.75;;
55218;SDS011;41088;44.012;20.902;2022-07-29T00:42:20;15.13;;;7.18;;
55218;SDS011;41088;44.012;20.902;2022-07-29T00:44:46;12.50;;;7.32;;
55218;SDS011;41088;44.012;20.902;2022-07-29T00:47:13;11.27;;;7.05;;
55218;SDS011;41088;44.012;20.902;2022-07-29T00:49:40;14.18;;;7.45;;
55218;SDS011;41088;44.012;20.902;2022-07-29T00:52:07;11.00;;;7.00;;
55218;SDS011;41088;44.012;20.902;2022-07-29T00:54:33;12.00;;;6.65;;
55218;SDS011;41088;44.012;20.902;2022-07-29T00:57:03;9.63;;;6.35;;
55218;SDS011;41088;44.012;20.902;2022-07-29T00:59:33;12.03;;;6.93;;
55218;SDS011;41088;44.012;20.902;2022-07-29T01:01:59;8.10;;;6.22;;
55218;SDS011;41088;44.012;20.902;2022-07-29T01:04:26;9.07;;;6.65;;
55218;SDS011;41088;44.012;20.902;2022-07-29T01:06:52;11.48;;;6.60;;
55218;SDS011;41088;44.012;20.902;2022-07-29T01:09:32;9.68;;;6.53;;
55218;SDS011;41088;44.012;20.902;2022-07-29T01:11:58;10.32;;;6.88;;
55218;SDS011;41088;44.012;20.902;2022-07-29T01:14:25;10.65;;;7.15;;
55218;SDS011;41088;44.012;20.902;2022-07-29T01:30:54;10.90;;;6.85;;
55218;SDS011;41088;44.012;20.902;2022-07-29T01:33:21;11.70;;;6.68;;
55218;SDS011;41088;44.012;20.902;2022-07-29T01:36:10;15.15;;;7.00;;
55218;SDS011;41088;44.012;20.902;2022-07-29T01:38:41;9.30;;;6.95;;
55218;SDS011;41088;44.012;20.902;2022-07-29T01:41:12;10.43;;;7.15;;
55218;SDS011;41088;44.012;20.902;2022-07-29T01:43:57;9.90;;;6.82;;
55218;SDS011;41088;44.012;20.902;2022-07-29T01:46:36;13.47;;;7.03;;
55218;SDS011;41088;44.012;20.902;2022-07-29T01:49:15;9.00;;;6.30;;
55218;SDS011;41088;44.012;20.902;2022-07-29T01:51:51;11.20;;;6.82;;
55218;SDS011;41088;44.012;20.902;2022-07-29T01:54:30;9.50;;;6.68;;
55218;SDS011;41088;44.012;20.902;2022-07-29T01:57:06;11.45;;;6.93;;
55218;SDS011;41088;44.012;20.902;2022-07-29T01:59:36;11.02;;;6.63;;
55218;SDS011;41088;44.012;20.902;2022-07-29T02:02:06;9.18;;;6.75;;
55218;SDS011;41088;44.012;20.902;2022-07-29T02:04:35;16.17;;;6.95;;
55218;SDS011;41088;44.012;20.902;2022-07-29T02:07:03;12.15;;;7.07;;
55218;SDS011;41088;44.012;20.902;2022-07-29T02:09:36;9.73;;;6.72;;
55218;SDS011;41088;44.012;20.902;2022-07-29T02:12:05;11.25;;;7.05;;
55218;SDS011;41088;44.012;20.902;2022-07-29T02:14:33;11.80;;;7.07;;
55218;SDS011;41088;44.012;20.902;2022-07-29T02:17:06;10.00;;;7.05;;
55218;SDS011;41088;44.012;20.902;2022-07-29T02:19:36;10.43;;;6.65;;
55218;SDS011;41088;44.012;20.902;2022-07-29T02:22:04;8.60;;;7.22;;
55218;SDS011;41088;44.012;20.902;2022-07-29T02:24:31;12.02;;;6.97;;
55218;SDS011;41088;44.012;20.902;2022-07-29T02:27:06;9.18;;;6.88;;
55218;SDS011;41088;44.012;20.902;2022-07-29T02:29:35;10.75;;;7.00;;
55218;SDS011;41088;44.012;20.902;2022-07-29T02:32:03;9.35;;;6.60;;
55218;SDS011;41088;44.012;20.902;2022-07-29T02:34:29;11.68;;;7.35;;
55218;SDS011;41088;44.012;20.902;2022-07-29T02:36:58;10.90;;;7.70;;
55218;SDS011;41088;44.012;20.902;2022-07-29T02:39:25;13.27;;;7.05;;
55218;SDS011;41088;44.012;20.902;2022-07-29T02:42:03;9.50;;;7.07;;
55218;SDS011;41088;44.012;20.902;2022-07-29T02:44:31;11.48;;;7.05;;
55218;SDS011;41088;44.012;20.902;2022-07-29T02:47:02;10.85;;;6.95;;
55218;SDS011;41088;44.012;20.902;2022-07-29T02:58:00;10.02;;;7.18;;
55218;SDS011;41088;44.012;20.902;2022-07-29T03:00:31;11.88;;;7.88;;
55218;SDS011;41088;44.012;20.902;2022-07-29T03:03:00;12.95;;;7.40;;
55218;SDS011;41088;44.012;20.902;2022-07-29T03:05:26;15.95;;;7.43;;
55218;SDS011;41088;44.012;20.902;2022-07-29T03:08:01;10.73;;;7.50;;
55218;SDS011;41088;44.012;20.902;2022-07-29T03:10:31;14.63;;;7.80;;
55218;SDS011;41088;44.012;20.902;2022-07-29T03:13:00;11.65;;;7.43;;
55218;SDS011;41088;44.012;20.902;2022-07-29T03:15:27;12.20;;;7.68;;
55218;SDS011;41088;44.012;20.902;2022-07-29T03:17:57;11.05;;;7.63;;
55218;SDS011;41088;44.012;20.902;2022-07-29T03:20:33;11.13;;;7.35;;
55218;SDS011;41088;44.012;20.902;2022-07-29T03:22:59;17.17;;;8.05;;
55218;SDS011;41088;44.012;20.902;2022-07-29T03:25:25;10.65;;;7.28;;
55218;SDS011;41088;44.012;20.902;2022-07-29T03:27:55;12.75;;;7.82;;
55218;SDS011;41088;44.012;20.902;2022-07-29T03:30:21;10.73;;;7.50;;
55218;SDS011;41088;44.012;20.902;2022-07-29T03:32:51;14.27;;;8.15;;
55218;SDS011;41088;44.012;20.902;2022-07-29T03:38:03;13.93;;;8.32;;
55218;SDS011;41088;44.012;20.902;2022-07-29T03:40:42;13.38;;;8.05;;
55218;SDS011;41088;44.012;20.902;2022-07-29T03:43:09;12.18;;;7.60;;
55218;SDS011;41088;44.012;20.902;2022-07-29T03:45:35;13.63;;;7.88;;
55218;SDS011;41088;44.012;20.902;2022-07-29T03:48:05;13.68;;;8.25;;
55218;SDS011;41088;44.012;20.902;2022-07-29T03:50:33;14.27;;;8.07;;
55218;SDS011;41088;44.012;20.902;2022-07-29T03:53:03;14.30;;;8.02;;
55218;SDS011;41088;44.012;20.902;2022-07-29T03:55:43;15.85;;;8.18;;
55218;SDS011;41088;44.012;20.902;2022-07-29T03:58:10;17.75;;;8.32;;
55218;SDS011;41088;44.012;20.902;2022-07-29T04:00:38;17.02;;;7.82;;
55218;SDS011;41088;44.012;20.902;2022-07-29T04:03:05;14.32;;;8.00;;
55218;SDS011;41088;44.012;20.902;2022-07-29T04:05:34;13.02;;;7.40;;
55218;SDS011;41088;44.012;20.902;2022-07-29T04:08:03;12.82;;;7.70;;
55218;SDS011;41088;44.012;20.902;2022-07-29T04:10:36;13.40;;;7.50;;
55218;SDS011;41088;44.012;20.902;2022-07-29T04:13:09;11.60;;;8.10;;
55218;SDS011;41088;44.012;20.902;2022-07-29T04:15:38;12.05;;;7.20;;
55218;SDS011;41088;44.012;20.902;2022-07-29T04:18:07;13.60;;;7.60;;
55218;SDS011;41088;44.012;20.902;2022-07-29T04:20:36;11.07;;;6.63;;
55218;SDS011;41088;44.012;20.902;2022-07-29T04:23:02;8.93;;;7.05;;
55218;SDS011;41088;44.012;20.902;2022-07-29T04:25:29;12.27;;;7.13;;
55218;SDS011;41088;44.012;20.902;2022-07-29T04:27:55;14.70;;;6.82;;
55218;SDS011;41088;44.012;20.902;2022-07-29T04:30:30;13.75;;;7.68;;
55218;SDS011;41088;44.012;20.902;2022-07-29T04:32:56;12.35;;;7.40;;
55218;SDS011;41088;44.012;20.902;2022-07-29T04:35:22;11.80;;;7.50;;
55218;SDS011;41088;44.012;20.902;2022-07-29T04:37:49;13.80;;;7.50;;
55218;SDS011;41088;44.012;20.902;2022-07-29T04:40:15;11.15;;;7.25;;
55218;SDS011;41088;44.012;20.902;2022-07-29T04:42:44;15.07;;;6.70;;
55218;SDS011;41088;44.012;20.902;2022-07-29T04:45:13;12.93;;;6.93;;
55218;SDS011;41088;44.012;20.902;2022-07-29T04:47:47;10.13;;;6.63;;
55218;SDS011;41088;44.012;20.902;2022-07-29T04:50:12;10.13;;;6.40;;
55218;SDS011;41088;44.012;20.902;2022-07-29T04:52:41;16.10;;;6.87;;
55218;SDS011;41088;44.012;20.902;2022-07-29T04:55:07;13.63;;;7.22;;
55218;SDS011;41088;44.012;20.902;2022-07-29T04:57:34;16.27;;;7.30;;
55218;SDS011;41088;44.012;20.902;2022-07-29T05:00:00;8.68;;;5.68;;
55218;SDS011;41088;44.012;20.902;2022-07-29T05:02:27;11.35;;;5.60;;
55218;SDS011;41088;44.012;20.902;2022-07-29T05:04:53;9.32;;;5.18;;
55218;SDS011;41088;44.012;20.902;2022-07-29T05:07:20;11.00;;;5.38;;
55218;SDS011;41088;44.012;20.902;2022-07-29T05:09:46;8.77;;;5.30;;
55218;SDS011;41088;44.012;20.902;2022-07-29T05:12:12;8.95;;;5.20;;
55218;SDS011;41088;44.012;20.902;2022-07-29T05:14:39;10.02;;;5.40;;
55218;SDS011;41088;44.012;20.902;2022-07-29T05:17:04;10.82;;;5.75;;
55218;SDS011;41088;44.012;20.902;2022-07-29T05:19:31;11.23;;;6.03;;
55218;SDS011;41088;44.012;20.902;2022-07-29T05:21:57;11.25;;;5.90;;
55218;SDS011;41088;44.012;20.902;2022-07-29T05:24:23;11.13;;;5.30;;
55218;SDS011;41088;44.012;20.902;2022-07-29T05:26:49;9.85;;;4.95;;
55218;SDS011;41088;44.012;20.902;2022-07-29T05:29:15;10.38;;;5.20;;
55218;SDS011;41088;44.012;20.902;2022-07-29T05:31:41;10.80;;;5.07;;
55218;SDS011;41088;44.012;20.902;2022-07-29T05:34:07;11.70;;;6.47;;
55218;SDS011;41088;44.012;20.902;2022-07-29T05:36:33;10.23;;;5.03;;
55218;SDS011;41088;44.012;20.902;2022-07-29T05:38:59;8.05;;;4.72;;
55218;SDS011;41088;44.012;20.902;2022-07-29T05:41:25;7.72;;;4.10;;
55218;SDS011;41088;44.012;20.902;2022-07-29T05:43:51;8.10;;;4.10;;
55218;SDS011;41088;44.012;20.902;2022-07-29T05:46:17;13.27;;;4.65;;
55218;SDS011;41088;44.012;20.902;2022-07-29T05:48:44;9.80;;;4.53;;
55218;SDS011;41088;44.012;20.902;2022-07-29T05:51:10;7.60;;;4.68;;
55218;SDS011;41088;44.012;20.902;2022-07-29T05:53:36;10.68;;;5.05;;
55218;SDS011;41088;44.012;20.902;2022-07-29T05:56:04;13.07;;;4.93;;
55218;SDS011;41088;44.012;20.902;2022-07-29T05:58:30;9.25;;;4.75;;
55218;SDS011;41088;44.012;20.902;2022-07-29T06:00:56;8.38;;;4.93;;
55218;SDS011;41088;44.012;20.902;2022-07-29T06:03:25;8.52;;;4.68;;
55218;SDS011;41088;44.012;20.902;2022-07-29T06:05:54;7.15;;;4.72;;
55218;SDS011;41088;44.012;20.902;2022-07-29T06:08:20;7.43;;;4.30;;
55218;SDS011;41088;44.012;20.902;2022-07-29T06:10:46;10.15;;;4.40;;
55218;SDS011;41088;44.012;20.902;2022-07-29T06:13:12;10.57;;;4.32;;
55218;SDS011;41088;44.012;20.902;2022-07-29T06:15:41;8.07;;;4.75;;
55218;SDS011;41088;44.012;20.902;2022-07-29T06:18:08;8.13;;;4.70;;
55218;SDS011;41088;44.012;20.902;2022-07-29T06:20:35;9.45;;;5.00;;
55218;SDS011;41088;44.012;20.902;2022-07-29T06:23:01;12.07;;;5.07;;
55218;SDS011;41088;44.012;20.902;2022-07-29T06:25:29;11.05;;;5.07;;
55218;SDS011;41088;44.012;20.902;2022-07-29T06:27:56;9.52;;;4.95;;
55218;SDS011;41088;44.012;20.902;2022-07-29T06:30:22;9.35;;;4.93;;
55218;SDS011;41088;44.012;20.902;2022-07-29T06:32:48;7.25;;;5.25;;
55218;SDS011;41088;44.012;20.902;2022-07-29T06:35:15;9.25;;;5.20;;
55218;SDS011;41088;44.012;20.902;2022-07-29T06:37:41;11.32;;;5.47;;
55218;SDS011;41088;44.012;20.902;2022-07-29T06:40:09;8.60;;;5.35;;
55218;SDS011;41088;44.012;20.902;2022-07-29T06:42:55;8.85;;;5.63;;
55218;SDS011;41088;44.012;20.902;2022-07-29T06:45:21;9.45;;;5.47;;
55218;SDS011;41088;44.012;20.902;2022-07-29T06:47:47;9.25;;;5.50;;
55218;SDS011;41088;44.012;20.902;2022-07-29T06:50:15;9.38;;;5.30;;
55218;SDS011;41088;44.012;20.902;2022-07-29T06:52:41;8.15;;;5.47;;
55218;SDS011;41088;44.012;20.902;2022-07-29T06:55:08;9.25;;;5.00;;
55218;SDS011;41088;44.012;20.902;2022-07-29T06:57:35;9.13;;;5.80;;
55218;SDS011;41088;44.012;20.902;2022-07-29T07:00:03;9.40;;;5.78;;
55218;SDS011;41088;44.012;20.902;2022-07-29T07:02:30;10.97;;;5.07;;
55218;SDS011;41088;44.012;20.902;2022-07-29T07:04:57;10.25;;;5.65;;
55218;SDS011;41088;44.012;20.902;2022-07-29T07:07:26;11.68;;;5.10;;
55218;SDS011;41088;44.012;20.902;2022-07-29T07:09:53;8.60;;;5.13;;
55218;SDS011;41088;44.012;20.902;2022-07-29T07:12:19;11.68;;;5.97;;
55218;SDS011;41088;44.012;20.902;2022-07-29T07:14:45;8.00;;;5.30;;
55218;SDS011;41088;44.012;20.902;2022-07-29T07:17:11;7.18;;;5.13;;
55218;SDS011;41088;44.012;20.902;2022-07-29T07:19:37;8.93;;;5.25;;
55218;SDS011;41088;44.012;20.902;2022-07-29T07:22:03;8.20;;;5.05;;
55218;SDS011;41088;44.012;20.902;2022-07-29T07:24:29;12.43;;;5.43;;
55218;SDS011;41088;44.012;20.902;2022-07-29T07:26:56;8.48;;;5.00;;
55218;SDS011;41088;44.012;20.902;2022-07-29T07:29:22;8.10;;;5.30;;
55218;SDS011;41088;44.012;20.902;2022-07-29T07:31:50;9.45;;;5.50;;
55218;SDS011;41088;44.012;20.902;2022-07-29T07:34:16;12.45;;;5.60;;
55218;SDS011;41088;44.012;20.902;2022-07-29T07:36:42;7.00;;;4.85;;
55218;SDS011;41088;44.012;20.902;2022-07-29T07:39:08;8.68;;;5.30;;
55218;SDS011;41088;44.012;20.902;2022-07-29T07:41:34;7.60;;;5.40;;
55218;SDS011;41088;44.012;20.902;2022-07-29T07:44:01;8.07;;;5.68;;
55218;SDS011;41088;44.012;20.902;2022-07-29T07:46:27;12.05;;;6.78;;
55218;SDS011;41088;44.012;20.902;2022-07-29T07:48:53;22.95;;;11.82;;
55218;SDS011;41088;44.012;20.902;2022-07-29T07:51:19;6.32;;;5.13;;
55218;SDS011;41088;44.012;20.902;2022-07-29T07:53:47;9.98;;;5.40;;
55218;SDS011;41088;44.012;20.902;2022-07-29T07:56:16;13.52;;;6.78;;
55218;SDS011;41088;44.012;20.902;2022-07-29T07:58:44;10.82;;;6.32;;
55218;SDS011;41088;44.012;20.902;2022-07-29T08:01:10;6.57;;;5.10;;
55218;SDS011;41088;44.012;20.902;2022-07-29T08:03:38;7.43;;;5.07;;
55218;SDS011;41088;44.012;20.902;2022-07-29T08:06:04;8.10;;;5.60;;
55218;SDS011;41088;44.012;20.902;2022-07-29T08:08:30;9.27;;;5.50;;
55218;SDS011;41088;44.012;20.902;2022-07-29T08:10:56;11.40;;;6.20;;
55218;SDS011;41088;44.012;20.902;2022-07-29T08:13:24;7.22;;;5.00;;
55218;SDS011;41088;44.012;20.902;2022-07-29T08:15:52;6.57;;;4.97;;
55218;SDS011;41088;44.012;20.902;2022-07-29T08:18:27;7.95;;;5.20;;
55218;SDS011;41088;44.012;20.902;2022-07-29T08:20:56;8.07;;;5.15;;
55218;SDS011;41088;44.012;20.902;2022-07-29T08:23:22;7.70;;;5.50;;
55218;SDS011;41088;44.012;20.902;2022-07-29T08:25:49;9.38;;;5.32;;
55218;SDS011;41088;44.012;20.902;2022-07-29T08:28:16;10.07;;;5.40;;
55218;SDS011;41088;44.012;20.902;2022-07-29T08:30:43;7.22;;;4.82;;
55218;SDS011;41088;44.012;20.902;2022-07-29T08:33:09;9.05;;;5.15;;
55218;SDS011;41088;44.012;20.902;2022-07-29T08:35:38;8.05;;;5.05;;
55218;SDS011;41088;44.012;20.902;2022-07-29T08:38:04;6.30;;;5.10;;
55218;SDS011;41088;44.012;20.902;2022-07-29T08:40:30;11.02;;;5.40;;
55218;SDS011;41088;44.012;20.902;2022-07-29T08:42:57;8.18;;;5.28;;
55218;SDS011;41088;44.012;20.902;2022-07-29T08:45:23;13.80;;;6.18;;
55218;SDS011;41088;44.012;20.902;2022-07-29T08:47:51;7.90;;;5.60;;
55218;SDS011;41088;44.012;20.902;2022-07-29T08:50:18;9.50;;;5.22;;
55218;SDS011;41088;44.012;20.902;2022-07-29T08:52:44;8.07;;;5.57;;
55218;SDS011;41088;44.012;20.902;2022-07-29T08:55:11;9.77;;;5.80;;
55218;SDS011;41088;44.012;20.902;2022-07-29T08:57:38;9.25;;;5.82;;
55218;SDS011;41088;44.012;20.902;2022-07-29T09:00:06;11.88;;;5.72;;
55218;SDS011;41088;44.012;20.902;2022-07-29T09:02:35;8.10;;;5.65;;
55218;SDS011;41088;44.012;20.902;2022-07-29T09:05:02;7.90;;;5.47;;
55218;SDS011;41088;44.012;20.902;2022-07-29T09:07:30;10.73;;;5.43;;
55218;SDS011;41088;44.012;20.902;2022-07-29T09:09:57;9.32;;;5.00;;
55218;SDS011;41088;44.012;20.902;2022-07-29T09:12:24;6.03;;;5.43;;
55218;SDS011;41088;44.012;20.902;2022-07-29T09:14:51;8.65;;;5.60;;
55218;SDS011;41088;44.012;20.902;2022-07-29T09:17:17;8.10;;;5.32;;
55218;SDS011;41088;44.012;20.902;2022-07-29T09:19:44;7.65;;;5.50;;
55218;SDS011;41088;44.012;20.902;2022-07-29T09:22:11;7.20;;;5.60;;
55218;SDS011;41088;44.012;20.902;2022-07-29T09:24:39;7.68;;;5.60;;
55218;SDS011;41088;44.012;20.902;2022-07-29T09:27:38;6.55;;;5.50;;
55218;SDS011;41088;44.012;20.902;2022-07-29T09:29:59;10.07;;;5.97;;
55218;SDS011;41088;44.012;20.902;2022-07-29T09:32:27;6.47;;;5.60;;
55218;SDS011;41088;44.012;20.902;2022-07-29T09:37:39;9.15;;;5.57;;
55218;SDS011;41088;44.012;20.902;2022-07-29T09:40:16;7.55;;;5.65;;
55218;SDS011;41088;44.012;20.902;2022-07-29T09:42:45;8.73;;;5.60;;
55218;SDS011;41088;44.012;20.902;2022-07-29T09:45:12;9.48;;;5.85;;
55218;SDS011;41088;44.012;20.902;2022-07-29T09:47:46;10.57;;;6.20;;
55218;SDS011;41088;44.012;20.902;2022-07-29T09:50:14;9.23;;;5.93;;
55218;SDS011;41088;44.012;20.902;2022-07-29T09:52:45;8.75;;;5.57;;
55218;SDS011;41088;44.012;20.902;2022-07-29T09:55:12;7.90;;;5.43;;
55218;SDS011;41088;44.012;20.902;2022-07-29T09:57:39;7.90;;;5.80;;
55218;SDS011;41088;44.012;20.902;2022-07-29T10:00:12;7.25;;;5.85;;
55218;SDS011;41088;44.012;20.902;2022-07-29T10:02:40;8.20;;;6.28;;
55218;SDS011;41088;44.012;20.902;2022-07-29T10:05:25;8.43;;;5.82;;
55218;SDS011;41088;44.012;20.902;2022-07-29T10:07:54;7.68;;;5.63;;
55218;SDS011;41088;44.012;20.902;2022-07-29T10:10:27;8.88;;;6.03;;
55218;SDS011;41088;44.012;20.902;2022-07-29T10:12:58;8.27;;;5.57;;
55218;SDS011;41088;44.012;20.902;2022-07-29T10:15:26;10.80;;;5.85;;
55218;SDS011;41088;44.012;20.902;2022-07-29T10:17:53;8.43;;;5.95;;
55218;SDS011;41088;44.012;20.902;2022-07-29T10:20:20;10.30;;;6.18;;
55218;SDS011;41088;44.012;20.902;2022-07-29T10:22:48;7.97;;;5.70;;
55218;SDS011;41088;44.012;20.902;2022-07-29T10:25:14;9.85;;;5.90;;
55218;SDS011;41088;44.012;20.902;2022-07-29T10:27:42;10.90;;;6.38;;
55218;SDS011;41088;44.012;20.902;2022-07-29T10:30:09;8.15;;;6.03;;
55218;SDS011;41088;44.012;20.902;2022-07-29T10:32:57;9.02;;;6.05;;
55218;SDS011;41088;44.012;20.902;2022-07-29T10:38:45;9.13;;;5.45;;
55218;SDS011;41088;44.012;20.902;2022-07-29T10:44:15;11.52;;;5.93;;
55218;SDS011;41088;44.012;20.902;2022-07-29T10:46:43;9.20;;;5.88;;
55218;SDS011;41088;44.012;20.902;2022-07-29T10:49:11;8.18;;;6.15;;
55218;SDS011;41088;44.012;20.902;2022-07-29T11:07:23;7.85;;;5.72;;
55218;SDS011;41088;44.012;20.902;2022-07-29T11:15:05;8.60;;;5.90;;
55218;SDS011;41088;44.012;20.902;2022-07-29T11:20:33;7.65;;;5.70;;
55218;SDS011;41088;44.012;20.902;2022-07-29T11:23:23;10.10;;;5.78;;
55218;SDS011;41088;44.012;20.902;2022-07-29T11:28:49;7.25;;;5.50;;
55218;SDS011;41088;44.012;20.902;2022-07-29T11:37:30;7.57;;;5.53;;
55218;SDS011;41088;44.012;20.902;2022-07-29T11:39:44;6.65;;;5.50;;
55218;SDS011;41088;44.012;20.902;2022-07-29T11:44:56;7.90;;;5.55;;
55218;SDS011;41088;44.012;20.902;2022-07-29T11:47:29;7.68;;;5.90;;
55218;SDS011;41088;44.012;20.902;2022-07-29T11:49:56;7.50;;;5.80;;
55218;SDS011;41088;44.012;20.902;2022-07-29T11:52:23;6.18;;;5.57;;
55218;SDS011;41088;44.012;20.902;2022-07-29T11:54:57;8.60;;;6.55;;
55218;SDS011;41088;44.012;20.902;2022-07-29T11:57:26;7.25;;;6.07;;
55218;SDS011;41088;44.012;20.902;2022-07-29T11:59:54;7.25;;;5.78;;
55218;SDS011;41088;44.012;20.902;2022-07-29T12:02:23;7.00;;;5.68;;
55218;SDS011;41088;44.012;20.902;2022-07-29T12:07:16;7.35;;;5.82;;
55218;SDS011;41088;44.012;20.902;2022-07-29T12:09:51;6.93;;;5.60;;
55218;SDS011;41088;44.012;20.902;2022-07-29T12:12:19;6.78;;;5.60;;
55218;SDS011;41088;44.012;20.902;2022-07-29T12:14:46;10.55;;;5.75;;
55218;SDS011;41088;44.012;20.902;2022-07-29T12:17:25;14.38;;;5.82;;
55218;SDS011;41088;44.012;20.902;2022-07-29T12:19:53;20.38;;;6.55;;
55218;SDS011;41088;44.012;20.902;2022-07-29T12:22:27;10.25;;;5.85;;
55218;SDS011;41088;44.012;20.902;2022-07-29T12:25:02;6.75;;;5.55;;
55218;SDS011;41088;44.012;20.902;2022-07-29T12:27:30;6.40;;;5.55;;
55218;SDS011;41088;44.012;20.902;2022-07-29T12:29:58;7.43;;;5.85;;
55218;SDS011;41088;44.012;20.902;2022-07-29T12:32:35;7.50;;;5.40;;
55218;SDS011;41088;44.012;20.902;2022-07-29T12:35:06;7.03;;;5.72;;
55218;SDS011;41088;44.012;20.902;2022-07-29T12:37:45;6.70;;;5.88;;
55218;SDS011;41088;44.012;20.902;2022-07-29T12:40:17;7.97;;;5.93;;
55218;SDS011;41088;44.012;20.902;2022-07-29T12:45:35;11.88;;;5.90;;
55218;SDS011;41088;44.012;20.902;2022-07-29T12:48:02;7.18;;;5.40;;
55218;SDS011;41088;44.012;20.902;2022-07-29T12:50:28;8.15;;;5.53;;
55218;SDS011;41088;44.012;20.902;2022-07-29T12:53:09;8.38;;;6.00;;
55218;SDS011;41088;44.012;20.902;2022-07-29T12:55:39;9.32;;;6.00;;
55218;SDS011;41088;44.012;20.902;2022-07-29T12:58:37;10.30;;;6.10;;
55218;SDS011;41088;44.012;20.902;2022-07-29T13:03:43;9.18;;;7.32;;
55218;SDS011;41088;44.012;20.902;2022-07-29T13:09:06;6.78;;;5.72;;
55218;SDS011;41088;44.012;20.902;2022-07-29T13:11:35;7.85;;;5.60;;
55218;SDS011;41088;44.012;20.902;2022-07-29T13:14:07;9.32;;;5.32;;
55218;SDS011;41088;44.012;20.902;2022-07-29T13:16:35;7.55;;;5.90;;
55218;SDS011;41088;44.012;20.902;2022-07-29T13:19:03;8.52;;;5.50;;
55218;SDS011;41088;44.012;20.902;2022-07-29T13:21:34;8.48;;;5.38;;
55218;SDS011;41088;44.012;20.902;2022-07-29T13:24:00;9.70;;;5.55;;
55218;SDS011;41088;44.012;20.902;2022-07-29T13:26:26;8.55;;;5.28;;
55218;SDS011;41088;44.012;20.902;2022-07-29T13:28:53;7.47;;;5.28;;
55218;SDS011;41088;44.012;20.902;2022-07-29T13:31:19;8.48;;;5.30;;
55218;SDS011;41088;44.012;20.902;2022-07-29T13:33:45;8.60;;;5.50;;
55218;SDS011;41088;44.012;20.902;2022-07-29T13:36:12;7.10;;;5.30;;
55218;SDS011;41088;44.012;20.902;2022-07-29T13:38:38;6.45;;;5.10;;
55218;SDS011;41088;44.012;20.902;2022-07-29T13:41:04;7.57;;;5.07;;
55218;SDS011;41088;44.012;20.902;2022-07-29T13:43:30;10.68;;;5.40;;
55218;SDS011;41088;44.012;20.902;2022-07-29T13:45:56;9.55;;;5.55;;
55218;SDS011;41088;44.012;20.902;2022-07-29T13:48:23;7.15;;;5.00;;
55218;SDS011;41088;44.012;20.902;2022-07-29T13:50:48;11.30;;;5.70;;
55218;SDS011;41088;44.012;20.902;2022-07-29T13:53:14;11.52;;;5.20;;
55218;SDS011;41088;44.012;20.902;2022-07-29T13:55:40;7.28;;;5.25;;
55218;SDS011;41088;44.012;20.902;2022-07-29T13:58:06;8.77;;;5.57;;
55218;SDS011;41088;44.012;20.902;2022-07-29T14:00:32;8.52;;;6.43;;
55218;SDS011;41088;44.012;20.902;2022-07-29T14:02:58;9.65;;;5.72;;
55218;SDS011;41088;44.012;20.902;2022-07-29T14:05:24;6.13;;;5.03;;
55218;SDS011;41088;44.012;20.902;2022-07-29T14:07:50;7.45;;;5.47;;
55218;SDS011;41088;44.012;20.902;2022-07-29T14:10:16;6.35;;;5.50;;
55218;SDS011;41088;44.012;20.902;2022-07-29T14:12:42;6.57;;;5.13;;
55218;SDS011;41088;44.012;20.902;2022-07-29T14:15:08;8.43;;;5.25;;
55218;SDS011;41088;44.012;20.902;2022-07-29T14:17:34;8.38;;;5.32;;
55218;SDS011;41088;44.012;20.902;2022-07-29T14:20:00;7.20;;;5.10;;
55218;SDS011;41088;44.012;20.902;2022-07-29T14:22:26;6.32;;;5.18;;
55218;SDS011;41088;44.012;20.902;2022-07-29T14:24:52;8.40;;;6.18;;
55218;SDS011;41088;44.012;20.902;2022-07-29T14:27:18;9.27;;;5.22;;
55218;SDS011;41088;44.012;20.902;2022-07-29T14:29:44;8.93;;;5.00;;
55218;SDS011;41088;44.012;20.902;2022-07-29T14:32:10;9.05;;;5.20;;
55218;SDS011;41088;44.012;20.902;2022-07-29T14:34:36;7.20;;;5.30;;
55218;SDS011;41088;44.012;20.902;2022-07-29T14:37:03;6.45;;;5.05;;
55218;SDS011;41088;44.012;20.902;2022-07-29T14:39:30;7.25;;;4.80;;
55218;SDS011;41088;44.012;20.902;2022-07-29T14:41:56;9.75;;;4.85;;
55218;SDS011;41088;44.012;20.902;2022-07-29T14:44:22;6.38;;;4.80;;
55218;SDS011;41088;44.012;20.902;2022-07-29T14:46:49;9.45;;;5.10;;
55218;SDS011;41088;44.012;20.902;2022-07-29T14:49:15;11.05;;;7.45;;
55218;SDS011;41088;44.012;20.902;2022-07-29T14:51:41;5.97;;;5.10;;
55218;SDS011;41088;44.012;20.902;2022-07-29T14:54:07;8.55;;;5.00;;
55218;SDS011;41088;44.012;20.902;2022-07-29T14:56:33;6.68;;;5.22;;
55218;SDS011;41088;44.012;20.902;2022-07-29T14:59:00;8.30;;;4.93;;
55218;SDS011;41088;44.012;20.902;2022-07-29T15:01:26;9.13;;;4.95;;
55218;SDS011;41088;44.012;20.902;2022-07-29T15:03:52;7.22;;;5.00;;
55218;SDS011;41088;44.012;20.902;2022-07-29T15:06:19;6.10;;;4.82;;
55218;SDS011;41088;44.012;20.902;2022-07-29T15:08:45;7.80;;;5.40;;
55218;SDS011;41088;44.012;20.902;2022-07-29T15:11:11;9.15;;;5.00;;
55218;SDS011;41088;44.012;20.902;2022-07-29T15:13:38;5.50;;;4.70;;
55218;SDS011;41088;44.012;20.902;2022-07-29T15:16:04;9.77;;;5.40;;
55218;SDS011;41088;44.012;20.902;2022-07-29T15:18:30;8.13;;;5.25;;
55218;SDS011;41088;44.012;20.902;2022-07-29T15:20:57;6.85;;;4.93;;
55218;SDS011;41088;44.012;20.902;2022-07-29T15:23:26;8.43;;;5.00;;
55218;SDS011;41088;44.012;20.902;2022-07-29T15:25:52;6.43;;;4.82;;
55218;SDS011;41088;44.012;20.902;2022-07-29T15:28:18;8.70;;;5.10;;
55218;SDS011;41088;44.012;20.902;2022-07-29T15:30:44;9.65;;;6.38;;
55218;SDS011;41088;44.012;20.902;2022-07-29T15:33:10;9.90;;;8.23;;
55218;SDS011;41088;44.012;20.902;2022-07-29T15:35:37;6.85;;;5.07;;
55218;SDS011;41088;44.012;20.902;2022-07-29T15:38:03;5.93;;;5.07;;
55218;SDS011;41088;44.012;20.902;2022-07-29T15:40:29;6.57;;;5.47;;
55218;SDS011;41088;44.012;20.902;2022-07-29T15:42:55;10.10;;;5.80;;
55218;SDS011;41088;44.012;20.902;2022-07-29T15:45:22;7.68;;;5.60;;
55218;SDS011;41088;44.012;20.902;2022-07-29T15:47:49;9.02;;;5.80;;
55218;SDS011;41088;44.012;20.902;2022-07-29T15:50:15;9.45;;;6.38;;
55218;SDS011;41088;44.012;20.902;2022-07-29T15:52:42;9.35;;;6.70;;
55218;SDS011;41088;44.012;20.902;2022-07-29T15:55:09;9.20;;;6.30;;